Time;durP1;ratioP1;P1;durP2;ratioP2;P2;SDS_P1;SDS_P2;PMS_P1;PMS_P2;Temp;Humidity;BMP_temperature;BMP_pressure;BME280_temperature;BME280_humidity;BME280_pressure;Samples;Min_cycle;Max_cycle;Signal;HPM_P1;HPM_P2
2022/06/22 00:02:32;;;;;;;3.27;2.27;;;27.00;58.30;;;27.49;40.63;98046.41;4995289;28;113776;-84
2022/06/22 00:05:07;;;;;;;3.30;3.00;;;27.00;58.50;;;27.46;40.89;98052.97;4980155;28;124800;-84
2022/06/22 00:07:42;;;;;;;2.73;2.50;;;26.90;58.70;;;27.44;40.70;98044.09;4983275;28;124058;-84
2022/06/22 00:10:28;;;;;;;3.33;2.37;;;26.90;58.90;;;27.40;40.93;98044.16;4959373;28;114587;-84
2022/06/22 00:12:57;;;;;;;3.90;2.60;;;26.90;59.10;;;27.39;40.96;98041.78;4963533;28;113945;-84
2022/06/22 00:15:48;;;;;;;3.23;2.57;;;26.90;59.30;;;27.36;41.08;98037.00;4972911;28;122090;-84
2022/06/22 00:18:40;;;;;;;2.73;2.43;;;26.90;59.50;;;27.30;41.02;98017.69;4978065;28;123771;-84
2022/06/22 00:21:32;;;;;;;2.40;2.20;;;26.80;59.60;;;27.25;41.19;98004.03;4982969;28;113347;-84
2022/06/22 00:24:15;;;;;;;3.60;2.90;;;26.80;59.80;;;27.22;41.28;98002.09;4971874;28;114320;-84
2022/06/22 00:26:52;;;;;;;2.40;2.20;;;26.70;59.90;;;27.20;41.25;97992.44;4979955;28;124025;-84
2022/06/22 00:29:25;;;;;;;2.67;2.47;;;26.70;60.10;;;27.20;41.44;97983.94;4975529;28;124270;-84
2022/06/22 00:31:51;;;;;;;2.93;2.63;;;26.70;60.40;;;27.19;41.84;97977.47;4980880;28;113652;-85
2022/06/22 00:34:26;;;;;;;2.53;2.33;;;26.70;60.90;;;27.18;41.97;97970.19;4981204;28;111946;-84
2022/06/22 00:37:00;;;;;;;3.17;2.60;;;26.70;60.70;;;27.17;41.64;97974.25;4971907;28;124499;-84
2022/06/22 00:39:29;;;;;;;3.30;2.80;;;26.60;60.90;;;27.15;41.84;97962.53;4981118;28;124225;-85
2022/06/22 00:42:14;;;;;;;2.90;2.60;;;26.60;61.00;;;27.14;42.29;97969.47;4986268;28;113599;-85
2022/06/22 00:45:08;;;;;;;2.50;2.30;;;26.60;61.20;;;27.10;41.97;97968.75;4970391;28;113902;-84
2022/06/22 00:47:36;;;;;;;2.93;2.67;;;26.60;61.40;;;27.06;42.54;97968.84;4976535;28;124568;-85
2022/06/22 00:50:14;;;;;;;2.93;2.63;;;26.50;61.60;;;27.06;42.21;97985.06;4972526;28;124443;-85
2022/06/22 00:53:17;;;;;;;3.10;2.80;;;26.50;61.70;;;27.02;42.22;97987.19;4972980;28;114462;-85
2022/06/22 00:56:15;;;;;;;3.10;2.80;;;26.50;61.90;;;27.02;42.39;97992.84;4940038;28;113869;-85
2022/06/22 00:59:17;;;;;;;2.90;2.60;;;26.50;62.10;;;26.97;42.77;98007.56;4969351;28;123912;-85
2022/06/22 01:01:52;;;;;;;2.60;2.40;;;26.50;62.30;;;26.96;42.64;98011.63;4978007;28;123081;-85
2022/06/22 01:04:37;;;;;;;2.93;2.73;;;26.40;62.40;;;26.93;43.15;98016.16;4974527;28;116002;-85
2022/06/22 01:07:36;;;;;;;2.93;2.63;;;26.40;62.70;;;26.88;43.01;98014.63;4977013;28;114203;-85
2022/06/22 01:10:10;;;;;;;3.00;2.80;;;26.40;62.80;;;26.84;43.06;98013.94;4977503;28;123496;-85
2022/06/22 01:12:49;;;;;;;2.70;2.50;;;26.30;63.00;;;26.82;43.28;98016.41;4981751;28;124150;-85
2022/06/22 01:15:32;;;;;;;4.47;3.07;;;26.30;63.20;;;26.80;43.69;98020.91;4972767;28;114506;-85
2022/06/22 01:18:15;;;;;;;3.17;2.87;;;26.30;63.40;;;26.78;43.65;98026.22;4979907;28;114047;-85
2022/06/22 01:21:10;;;;;;;5.40;2.90;;;26.30;64.00;;;26.71;43.49;98030.03;4971248;28;124927;-85
2022/06/22 01:23:45;;;;;;;3.87;3.10;;;26.30;63.70;;;26.67;43.60;98037.81;4969666;28;122858;-85
2022/06/22 01:26:20;;;;;;;3.47;3.03;;;26.20;63.90;;;26.63;44.13;98042.78;4983319;28;113669;-85
2022/06/22 01:28:58;;;;;;;3.20;2.90;;;26.10;64.40;;;26.60;43.86;98040.81;4975200;28;113967;-86
2022/06/22 01:31:24;;;;;;;3.60;3.13;;;26.10;64.40;;;26.56;44.47;98035.22;4966140;28;123404;-85
2022/06/22 01:33:52;;;;;;;3.43;2.53;;;26.10;64.60;;;26.55;44.54;98027.19;4976585;28;124323;-85
2022/06/22 01:36:29;;;;;;;3.23;2.80;;;26.00;64.70;;;26.54;44.57;98034.84;4983345;28;113397;-85
2022/06/22 01:38:56;;;;;;;2.97;2.67;;;26.00;65.00;;;26.55;44.12;98030.00;4985943;28;114517;-85
2022/06/22 01:41:45;;;;;;;2.93;2.43;;;26.00;65.10;;;26.52;44.72;98030.84;4972277;28;124152;-85
2022/06/22 01:44:49;;;;;;;3.27;2.97;;;26.00;65.30;;;26.48;44.62;98035.78;4971278;28;124572;-84
2022/06/22 01:47:30;;;;;;;3.90;3.03;;;26.00;65.30;;;26.48;44.35;98032.97;4973389;28;114039;-85
2022/06/22 01:50:11;;;;;;;2.83;2.57;;;26.00;65.50;;;26.43;44.59;98029.41;4970682;28;114415;-85
2022/06/22 01:53:18;;;;;;;4.27;3.20;;;26.60;66.20;;;26.36;45.12;98040.91;4975820;28;124171;-85
2022/06/22 01:55:52;;;;;;;3.50;3.20;;;25.90;65.80;;;26.30;45.08;98050.31;4977235;28;123608;-85
2022/06/22 01:58:19;;;;;;;4.30;3.60;;;25.80;65.80;;;26.23;44.80;98045.63;4974657;28;115365;-86
2022/06/22 02:00:57;;;;;;;3.40;3.10;;;25.80;66.00;;;26.16;45.23;98037.28;4979236;28;114921;-85
2022/06/22 02:03:46;;;;;;;4.67;3.37;;;25.70;66.10;;;26.09;44.90;98045.94;4985399;28;124505;-84
2022/06/22 02:09:14;;;;;;;4.23;3.57;;;25.60;66.50;;;25.99;45.28;98023.03;4981382;28;115098;-84
2022/06/22 02:11:48;;;;;;;7.10;3.83;;;25.60;66.70;;;25.99;45.45;98014.56;4987537;28;114013;-84
2022/06/22 02:14:25;;;;;;;3.83;3.23;;;25.50;66.90;;;26.00;45.51;97993.50;4985160;28;123883;-84
2022/06/22 02:17:01;;;;;;;3.53;3.23;;;25.50;67.10;;;26.01;45.91;97977.34;4979287;28;124621;-84
2022/06/22 02:19:30;;;;;;;5.53;3.40;;;25.50;68.00;;;26.05;45.84;97974.41;4978096;28;114419;-84
2022/06/22 02:22:00;;;;;;;3.00;2.80;;;25.50;67.50;;;26.09;45.57;97997.81;4969556;28;113842;-84
2022/06/22 02:24:44;;;;;;;3.50;3.20;;;25.50;67.60;;;26.10;45.54;98017.16;4978282;28;124426;-84
2022/06/22 02:27:22;;;;;;;4.03;3.27;;;25.50;67.80;;;26.09;46.01;98014.78;4971752;28;123952;-84
2022/06/22 02:29:57;;;;;;;3.00;2.70;;;25.50;67.90;;;26.08;45.96;98013.19;4984212;28;114267;-85
2022/06/22 02:32:43;;;;;;;4.70;4.20;;;25.50;68.00;;;26.04;46.45;98007.59;4976139;28;114059;-85
2022/06/22 02:35:13;;;;;;;4.27;3.87;;;25.50;68.60;;;26.02;46.04;98009.25;4974273;28;124393;-85
2022/06/22 02:37:46;;;;;;;4.13;3.73;;;25.50;68.70;;;26.04;46.51;98012.47;4973893;28;123390;-85
2022/06/22 02:40:22;;;;;;;6.57;4.23;;;25.50;68.70;;;26.05;45.83;98029.00;4978577;28;114508;-85
2022/06/22 02:45:36;;;;;;;2.80;2.60;;;25.50;69.00;;;26.08;45.85;98024.50;4985754;28;125451;-85
2022/06/22 02:48:12;;;;;;;3.30;2.83;;;25.50;69.00;;;26.08;45.99;98007.50;4995741;28;122531;-85
2022/06/22 02:50:48;;;;;;;3.30;3.00;;;25.50;69.10;;;26.06;46.61;98010.78;4981373;28;115485;-85
2022/06/22 02:53:24;;;;;;;4.13;3.73;;;25.50;69.30;;;26.05;46.54;98025.38;4982202;28;114925;-85
2022/06/22 02:55:53;;;;;;;4.80;4.30;;;25.50;69.70;;;26.02;46.78;98026.25;4981166;28;124060;-85
2022/06/22 02:58:26;;;;;;;3.60;3.30;;;25.50;69.90;;;25.98;46.67;98015.81;4981647;28;124005;-85
2022/06/22 03:00:54;;;;;;;6.17;4.03;;;25.50;70.10;;;25.97;46.67;98019.84;4962265;28;113709;-85
2022/06/22 03:03:22;;;;;;;3.67;3.37;;;25.40;70.20;;;25.97;47.21;98013.38;4986871;28;114476;-85
2022/06/22 03:05:54;;;;;;;4.80;3.50;;;25.40;70.40;;;25.94;47.17;98015.06;4977881;28;124729;-85
2022/06/22 03:08:21;;;;;;;4.53;3.70;;;25.40;70.60;;;25.94;47.13;98015.06;4982049;28;123956;-86
2022/06/22 03:11:02;;;;;;;4.40;3.37;;;25.40;70.60;;;25.93;47.28;98018.34;4977379;28;114337;-85
2022/06/22 03:13:42;;;;;;;4.20;3.53;;;25.40;70.90;;;25.90;47.00;98022.84;4983125;28;113873;-86
2022/06/22 03:16:29;;;;;;;4.47;3.77;;;25.40;70.90;;;25.87;47.38;98020.06;4977557;28;124556;-86
2022/06/22 03:19:02;;;;;;;3.93;3.63;;;25.40;71.10;;;25.86;47.47;98019.28;4985730;28;123714;-85
2022/06/22 03:21:28;;;;;;;3.70;3.40;;;25.30;71.20;;;25.87;47.24;98015.22;4981501;28;114291;-86
2022/06/22 03:25:08;;;;;;;3.77;3.37;;;25.30;71.40;;;25.85;47.26;98012.03;4970159;28;114213;-86
2022/06/22 03:27:44;;;;;;;4.40;3.67;;;25.30;71.60;;;25.86;47.14;98007.94;4976582;28;125991;-86
2022/06/22 03:30:21;;;;;;;4.60;4.20;;;25.30;71.90;;;25.87;47.42;98014.41;4983979;28;124002;-85
2022/06/22 03:33:05;;;;;;;3.20;2.90;;;25.30;72.00;;;25.85;47.46;98011.22;4957779;28;114105;-85
2022/06/22 03:35:41;;;;;;;3.47;3.17;;;25.30;72.20;;;25.86;47.67;98013.59;4982766;28;114222;-85
2022/06/22 03:38:14;;;;;;;3.80;3.40;;;25.30;72.30;;;25.87;47.53;97997.41;4975618;28;123950;-85
2022/06/22 03:40:51;;;;;;;3.83;3.53;;;25.30;72.30;;;25.89;47.29;97992.13;4991980;28;123156;-86
2022/06/22 03:43:24;;;;;;;3.70;3.30;;;25.30;72.40;;;25.88;47.57;97999.03;4984691;28;115052;-85
2022/06/22 03:46:00;;;;;;;4.60;3.53;;;25.30;72.50;;;25.88;47.72;98007.53;4979634;28;114538;-85
2022/06/22 03:48:39;;;;;;;4.17;3.77;;;25.30;72.50;;;25.87;47.67;98018.06;4971594;28;124120;-86
2022/06/22 03:51:53;;;;;;;5.63;4.30;;;25.30;72.50;;;25.86;47.41;98026.97;4969032;28;122625;-86
2022/06/22 03:54:57;;;;;;;3.30;3.00;;;25.30;72.60;;;25.82;47.35;98029.84;4965793;28;114232;-86
2022/06/22 03:57:27;;;;;;;5.53;3.57;;;25.30;72.70;;;25.81;47.58;98025.41;4974367;28;113851;-86
2022/06/22 03:59:56;;;;;;;4.37;3.87;;;25.30;72.80;;;25.80;47.77;98023.81;4970569;28;122472;-86
2022/06/22 04:02:25;;;;;;;4.43;3.33;;;25.30;72.90;;;25.78;47.45;98029.91;4976349;28;123771;-86
2022/06/22 04:04:54;;;;;;;3.87;3.57;;;23.70;71.50;;;25.77;47.38;98033.19;4974426;28;114043;-85
2022/06/22 04:07:23;;;;;;;3.57;3.13;;;25.20;73.00;;;25.75;47.88;98035.63;4975416;28;114446;-85
2022/06/22 04:09:54;;;;;;;4.83;3.20;;;25.20;72.90;;;25.73;47.33;98032.44;4979849;28;124087;-85
2022/06/22 04:12:40;;;;;;;3.67;3.37;;;25.20;73.00;;;25.71;47.47;98026.41;4978332;28;123932;-85
2022/06/22 04:15:29;;;;;;;4.93;3.70;;;25.20;73.00;;;25.68;47.46;98030.09;4980524;28;114417;-85
2022/06/22 04:18:13;;;;;;;3.27;2.97;;;25.20;73.10;;;25.68;47.71;98030.91;4968153;28;115098;-86
2022/06/22 04:20:56;;;;;;;4.30;3.90;;;25.10;73.10;;;25.67;47.63;98037.00;4978098;28;123940;-86
2022/06/22 04:23:34;;;;;;;3.83;3.53;;;25.10;73.00;;;25.66;47.61;98030.56;4983407;28;123748;-85
2022/06/22 04:26:28;;;;;;;4.70;3.43;;;25.10;72.80;;;25.65;47.50;98031.75;4970140;28;114590;-85
2022/06/22 04:29:12;;;;;;;3.93;3.63;;;25.10;72.80;;;25.62;47.29;98046.78;4972964;28;113940;-85
2022/06/22 04:31:55;;;;;;;4.03;3.63;;;25.10;72.50;;;25.61;46.95;98030.25;4981445;28;124253;-85
2022/06/22 04:34:41;;;;;;;5.40;3.63;;;25.10;72.30;;;25.59;46.77;98029.88;4985217;28;124160;-85
2022/06/22 04:37:32;;;;;;;3.77;3.47;;;25.10;72.00;;;25.59;46.50;98035.53;4973708;28;115330;-85
2022/06/22 04:40:29;;;;;;;3.07;2.80;;;25.00;71.60;;;25.58;46.58;98034.75;4982101;28;115414;-86
2022/06/22 04:43:00;;;;;;;4.77;3.03;;;25.00;71.20;;;25.60;45.79;98039.94;4972436;28;124069;-85
2022/06/22 04:45:39;;;;;;;4.03;3.20;;;25.00;70.90;;;25.58;45.90;98037.56;4968969;28;122747;-85
2022/06/22 04:48:20;;;;;;;3.70;3.13;;;25.00;70.50;;;25.55;45.35;98042.06;4969467;28;114308;-85
2022/06/22 04:50:52;;;;;;;4.33;3.43;;;25.00;70.20;;;25.49;45.82;98052.25;4976048;28;114091;-85
2022/06/22 04:53:27;;;;;;;9.40;3.93;;;25.00;70.20;;;25.48;45.68;98067.63;4994589;28;124319;-85
2022/06/22 04:55:55;;;;;;;4.67;3.57;;;24.90;70.10;;;25.47;45.62;98059.56;4988792;28;124696;-85
2022/06/22 04:58:44;;;;;;;3.37;3.07;;;24.90;70.20;;;25.48;45.72;98067.63;4982182;28;114256;-85
2022/06/22 05:01:21;;;;;;;3.30;3.00;;;24.90;70.30;;;25.51;45.60;98066.78;4976223;28;114486;-85
2022/06/22 05:03:51;;;;;;;3.20;2.90;;;24.90;70.40;;;25.54;46.17;98059.47;4992946;28;124842;-85
2022/06/22 05:06:27;;;;;;;3.60;3.23;;;25.00;70.70;;;25.61;46.14;98052.88;4977403;28;123873;-85
2022/06/22 05:09:02;;;;;;;3.47;3.17;;;25.00;70.90;;;25.63;45.97;98059.72;4980605;28;114648;-84
2022/06/22 05:11:38;;;;;;;3.33;3.03;;;25.00;71.10;;;25.63;46.07;98061.72;4980746;28;113649;-85
2022/06/22 05:14:18;;;;;;;4.63;4.10;;;25.10;71.40;;;25.62;46.41;98054.47;4963781;28;123488;-85
2022/06/22 05:16:54;;;;;;;6.10;4.10;;;25.00;71.70;;;25.60;46.43;98052.06;4973311;28;122969;-86
2022/06/22 05:19:28;;;;;;;4.20;3.80;;;25.00;71.90;;;25.59;46.47;98041.19;4966772;28;114532;-86
2022/06/22 05:21:58;;;;;;;4.10;3.70;;;25.00;72.10;;;25.58;46.61;98054.53;4966090;28;113896;-86
2022/06/22 05:24:34;;;;;;;4.30;3.90;;;25.00;72.10;;;25.60;46.88;98056.94;4966846;28;126113;-85
2022/06/22 05:27:06;;;;;;;3.90;3.30;;;25.00;72.20;;;25.63;46.90;98062.53;4974488;28;123945;-86
2022/06/22 05:29:44;;;;;;;3.90;3.50;;;25.10;72.30;;;25.68;46.95;98069.72;4982345;28;115235;-86
2022/06/22 05:32:20;;;;;;;5.90;3.83;;;25.10;72.30;;;25.71;46.80;98071.66;4967897;28;115005;-86
2022/06/22 05:34:50;;;;;;;5.63;4.37;;;25.10;72.30;;;25.68;46.68;98064.84;4977404;28;124504;-86
2022/06/22 05:37:20;;;;;;;4.17;3.87;;;25.10;72.30;;;25.67;46.46;98073.78;4981739;28;123636;-85
2022/06/22 05:39:47;;;;;;;4.00;3.60;;;25.10;72.10;;;25.71;46.42;98080.16;4979774;28;114239;-86
2022/06/22 05:42:16;;;;;;;4.20;3.80;;;23.80;70.90;;;25.74;46.62;98076.50;4979548;28;113604;-86
2022/06/22 05:44:43;;;;;;;4.07;3.67;;;25.20;72.30;;;25.79;46.75;98087.28;4978834;28;124219;-86
2022/06/22 05:47:28;;;;;;;3.87;3.53;;;25.20;72.30;;;25.81;46.50;98084.84;4987229;28;122735;-86
2022/06/22 05:50:08;;;;;;;3.83;3.23;;;25.20;72.20;;;25.86;46.40;98090.03;4986973;28;114241;-86
2022/06/22 05:52:49;;;;;;;5.43;3.93;;;25.30;72.30;;;25.87;46.23;98083.16;4981821;28;113564;-86
2022/06/22 05:55:25;;;;;;;5.30;4.13;;;25.80;72.60;;;25.86;46.48;98087.19;4973327;28;123350;-86
2022/06/22 05:58:14;;;;;;;5.20;3.93;;;25.30;72.20;;;25.83;46.62;98088.03;4969410;28;124041;-86
2022/06/22 06:00:47;;;;;;;5.20;2.97;;;25.30;72.10;;;25.87;46.39;98080.31;4958890;28;113252;-86
2022/06/22 06:04:08;;;;;;;3.90;3.47;;;25.30;72.30;;;25.90;46.57;98082.28;4977942;28;114301;-85
2022/06/22 06:06:41;;;;;;;6.80;5.30;;;25.30;72.40;;;25.87;46.33;98090.81;4983329;28;124285;-85
2022/06/22 06:09:19;;;;;;;5.43;4.40;;;26.90;73.70;;;25.80;46.80;98094.56;4981444;28;124399;-86
2022/06/22 06:12:02;;;;;;;4.57;4.07;;;25.30;72.50;;;25.79;46.68;98098.59;4975313;28;114463;-86
2022/06/22 06:14:40;;;;;;;5.63;4.27;;;25.30;72.70;;;25.77;47.07;98104.72;4984977;28;113828;-87
2022/06/22 06:17:19;;;;;;;4.97;4.27;;;25.20;72.90;;;25.76;47.19;98094.63;4990040;28;123935;-86
2022/06/22 06:19:50;;;;;;;5.40;3.73;;;25.30;72.90;;;25.78;46.88;98094.19;4972269;28;124057;-86
2022/06/22 06:22:17;;;;;;;4.13;3.63;;;25.20;72.80;;;25.79;46.94;98107.09;4979433;28;115478;-84
2022/06/22 06:27:45;;;;;;;5.00;3.70;;;25.30;72.80;;;25.76;46.55;98120.09;4974977;28;124957;-85
2022/06/22 06:30:25;;;;;;;4.10;3.53;;;25.20;72.60;;;25.74;46.85;98127.44;4978614;28;124626;-86
2022/06/22 06:33:11;;;;;;;4.10;3.70;;;25.20;72.50;;;25.71;47.00;98125.44;4978048;28;114080;-85
2022/06/22 06:36:10;;;;;;;6.00;3.80;;;25.20;72.50;;;25.69;46.65;98130.75;4981686;28;114018;-85
2022/06/22 06:38:45;;;;;;;4.07;3.33;;;25.20;72.50;;;25.72;46.92;98132.72;4991277;28;124133;-86
2022/06/22 06:41:45;;;;;;;3.60;3.30;;;25.20;72.50;;;25.71;46.46;98131.09;4977346;28;123720;-84
2022/06/22 06:44:18;;;;;;;4.33;3.70;;;25.20;72.60;;;25.75;46.51;98134.69;4970278;28;114575;-85
2022/06/22 06:47:03;;;;;;;6.20;4.00;;;25.20;72.70;;;25.75;46.40;98141.13;4983911;28;114094;-85
2022/06/22 06:50:00;;;;;;;4.83;4.10;;;25.20;72.70;;;25.76;46.46;98139.91;4969086;28;124266;-86
2022/06/22 06:52:52;;;;;;;3.83;3.33;;;25.20;72.70;;;25.78;46.41;98145.91;4979275;28;124320;-86
2022/06/22 06:55:37;;;;;;;4.13;3.67;;;25.20;72.70;;;25.81;46.53;98144.25;4985965;28;114151;-86
2022/06/22 06:58:11;;;;;;;3.80;3.20;;;25.20;72.80;;;25.83;46.50;98147.47;4982568;28;114211;-86
2022/06/22 07:00:38;;;;;;;3.53;3.20;;;25.30;72.80;;;25.85;46.36;98149.91;4970945;28;124301;-86
2022/06/22 07:03:15;;;;;;;3.40;3.10;;;25.30;72.80;;;25.87;46.78;98155.91;4980427;28;124727;-87
2022/06/22 07:05:41;;;;;;;3.50;3.20;;;25.30;72.80;;;25.88;46.74;98158.31;4969644;28;113635;-87
2022/06/22 07:08:34;;;;;;;5.63;3.73;;;25.30;72.80;;;25.85;46.57;98164.06;4981189;28;113765;-87
2022/06/22 07:11:10;;;;;;;3.53;3.30;;;25.30;72.70;;;25.82;46.41;98165.69;4983173;28;124069;-86
2022/06/22 07:13:49;;;;;;;3.97;3.53;;;25.30;72.80;;;25.81;46.39;98161.25;4969645;28;124038;-87
2022/06/22 07:16:21;;;;;;;4.73;3.70;;;25.30;73.10;;;25.77;47.07;98164.16;4977672;28;115493;-87
2022/06/22 07:19:06;;;;;;;3.83;3.53;;;25.30;72.90;;;25.77;46.86;98155.66;4981534;28;114628;-87
2022/06/22 07:21:44;;;;;;;3.90;3.50;;;25.30;73.10;;;25.79;47.24;98160.88;4968949;28;124150;-87
2022/06/22 07:24:35;;;;;;;4.13;3.60;;;25.20;73.30;;;25.80;46.83;98156.81;4969298;28;124107;-87
2022/06/22 07:27:46;;;;;;;4.97;4.10;;;25.20;73.70;;;25.80;47.23;98151.16;4960844;28;113121;-86
2022/06/22 07:30:27;;;;;;;5.00;3.40;;;25.20;74.00;;;25.83;47.66;98155.16;4983557;28;115804;-86
2022/06/22 07:33:14;;;;;;;3.90;3.60;;;25.20;74.40;;;25.84;48.07;98151.13;4979923;28;123074;-86
2022/06/22 07:35:45;;;;;;;4.00;3.60;;;25.20;74.80;;;25.85;48.21;98149.91;4970629;28;123783;-86
2022/06/22 07:38:47;;;;;;;4.50;4.10;;;25.30;75.30;;;25.85;48.37;98135.75;4972844;28;114777;-86
2022/06/22 07:41:19;;;;;;;4.97;4.23;;;25.30;75.50;;;25.85;48.25;98121.59;4972627;28;113548;-87
2022/06/22 07:44:04;;;;;;;5.07;4.37;;;25.30;75.80;;;25.83;48.11;98109.88;4979848;28;124086;-86
2022/06/22 07:46:52;;;;;;;6.43;5.07;;;25.30;76.00;;;25.75;48.92;98109.22;4975976;28;121785;-86
2022/06/22 07:49:29;;;;;;;11.50;6.63;;;25.20;76.30;;;25.64;49.16;98115.06;4972001;28;114795;-86
2022/06/22 07:52:01;;;;;;;7.63;5.87;;;25.10;77.00;;;25.56;49.31;98113.59;4977460;28;113383;-87
2022/06/22 07:54:37;;;;;;;6.63;4.93;;;25.10;77.10;;;25.51;49.04;98111.25;4970392;28;125207;-87
2022/06/22 07:57:34;;;;;;;5.23;4.73;;;25.00;77.70;;;25.50;49.07;98115.31;4980428;28;124533;-86
2022/06/22 08:00:13;;;;;;;7.17;4.77;;;25.00;77.30;;;25.51;49.13;98120.53;4978631;28;113582;-86
2022/06/22 08:02:56;;;;;;;5.73;5.10;;;25.00;77.50;;;25.53;49.21;98125.75;4989731;28;114019;-85
2022/06/22 08:05:28;;;;;;;6.07;4.80;;;25.00;77.60;;;25.60;49.32;98125.63;4979990;28;123856;-86
2022/06/22 08:08:01;;;;;;;6.03;4.57;;;25.00;77.70;;;25.65;49.11;98127.97;4977470;28;123902;-86
2022/06/22 08:10:40;;;;;;;9.20;5.43;;;25.00;77.80;;;25.67;49.09;98127.53;4976962;28;115203;-86
2022/06/22 08:13:22;;;;;;;6.50;5.00;;;25.10;78.10;;;25.62;49.39;98128.03;4981658;28;115116;-86
2022/06/22 08:16:20;;;;;;;10.20;5.10;;;25.00;77.70;;;25.57;48.96;98132.94;4974196;28;124203;-86
2022/06/22 08:18:48;;;;;;;8.70;4.77;;;25.10;77.80;;;25.60;48.78;98133.31;4978283;28;123906;-86
2022/06/22 08:21:18;;;;;;;6.27;4.10;;;25.00;77.50;;;25.63;48.80;98135.28;4984246;28;114310;-85
2022/06/22 08:23:45;;;;;;;4.57;4.13;;;25.10;78.20;;;25.67;48.92;98145.31;4980743;28;114782;-85
2022/06/22 08:26:32;;;;;;;4.20;3.80;;;25.10;77.30;;;25.69;48.59;98136.41;4974978;28;124591;-85
2022/06/22 08:28:59;;;;;;;5.33;4.40;;;25.10;77.00;;;25.67;48.65;98136.81;4979299;28;123934;-85
2022/06/22 08:31:31;;;;;;;4.87;3.93;;;25.10;76.80;;;25.66;48.70;98132.41;4979490;28;114422;-85
2022/06/22 08:34:04;;;;;;;4.13;3.73;;;25.20;76.80;;;25.66;48.39;98131.63;4979532;28;114553;-85
2022/06/22 08:36:43;;;;;;;4.60;3.77;;;25.10;76.60;;;25.69;48.58;98130.75;4984909;28;124074;-85
2022/06/22 08:39:31;;;;;;;4.40;3.83;;;25.10;76.60;;;25.71;48.56;98137.56;4994090;28;122811;-85
2022/06/22 08:42:37;;;;;;;4.00;3.30;;;25.20;76.60;;;25.72;48.42;98144.81;4975581;28;114690;-86
2022/06/22 08:45:18;;;;;;;4.70;4.30;;;25.20;76.50;;;25.75;48.29;98140.34;4973742;28;113556;-86
2022/06/22 08:48:14;;;;;;;3.83;3.43;;;25.20;76.50;;;25.78;48.11;98136.63;4967437;28;123809;-84
2022/06/22 08:51:13;;;;;;;4.70;3.90;;;25.20;76.50;;;25.79;48.33;98138.22;4975589;28;123542;-87
2022/06/22 08:54:02;;;;;;;5.63;3.63;;;25.30;76.50;;;25.82;47.96;98143.06;4982918;28;113279;-85
2022/06/22 08:56:48;;;;;;;3.83;3.20;;;25.20;76.50;;;25.80;47.70;98151.16;4978354;28;111887;-85
2022/06/22 09:00:00;;;;;;;4.13;3.43;;;25.20;76.10;;;25.76;47.90;98158.91;4983875;28;124195;-85
2022/06/22 09:02:35;;;;;;;5.63;4.40;;;25.20;75.90;;;25.70;47.90;98157.81;4972407;28;123518;-85
2022/06/22 09:05:24;;;;;;;4.47;4.03;;;25.20;75.80;;;25.63;47.85;98160.75;4984874;28;114852;-84
2022/06/22 09:08:38;;;;;;;5.83;4.33;;;25.20;75.50;;;25.62;47.44;98164.81;4975880;28;115384;-85
2022/06/22 09:11:10;;;;;;;4.23;3.83;;;25.20;75.50;;;25.59;47.48;98168.50;4949329;28;124034;-85
2022/06/22 09:14:41;;;;;;;6.63;3.90;;;25.10;75.30;;;25.54;47.63;98167.75;4988830;28;124704;-85
2022/06/22 09:17:30;;;;;;;4.43;3.40;;;25.10;75.00;;;25.54;47.12;98170.56;4947508;28;113599;-86
2022/06/22 09:20:35;;;;;;;3.43;3.17;;;25.00;74.50;;;25.55;46.82;98177.84;4970188;28;113234;-86
2022/06/22 09:23:40;;;;;;;5.03;3.80;;;25.10;74.30;;;25.57;46.60;98177.41;4971479;28;124141;-85
2022/06/22 09:26:43;;;;;;;3.30;3.00;;;25.10;74.10;;;25.60;46.80;98178.56;4981494;28;124909;-86
2022/06/22 09:29:37;;;;;;;5.03;3.97;;;25.10;74.30;;;25.63;46.92;98174.88;4969265;28;114976;-87
2022/06/22 09:32:24;;;;;;;3.53;3.23;;;25.10;74.50;;;25.67;47.31;98175.66;4977135;28;114057;-86
2022/06/22 09:35:27;;;;;;;5.10;3.60;;;25.10;74.70;;;25.69;46.95;98179.66;4977881;28;125032;-86
2022/06/22 09:38:06;;;;;;;3.77;3.43;;;25.60;75.00;;;25.71;47.28;98176.38;4986433;28;124615;-86
2022/06/22 09:40:47;;;;;;;4.50;3.67;;;25.20;74.70;;;25.73;46.89;98180.38;4981040;28;114460;-85
2022/06/22 09:43:28;;;;;;;4.47;4.03;;;25.20;74.80;;;25.74;47.26;98165.00;4994926;28;113835;-85
2022/06/22 09:46:36;;;;;;;5.17;4.13;;;25.20;74.80;;;25.75;47.23;98165.81;4977760;28;124666;-85
2022/06/22 09:49:52;;;;;;;6.90;4.17;;;25.20;74.80;;;25.76;47.33;98167.38;4977562;28;123940;-85
2022/06/22 09:52:31;;;;;;;4.90;4.13;;;25.20;75.00;;;25.78;47.40;98164.94;4973410;28;114531;-85
2022/06/22 09:58:48;;;;;;;5.93;3.90;;;25.30;75.10;;;25.78;47.46;98176.25;4977769;28;125187;-85
2022/06/22 10:01:45;;;;;;;5.40;3.90;;;25.20;75.20;;;25.77;47.44;98178.28;4987959;28;123935;-85
2022/06/22 10:04:52;;;;;;;3.70;3.40;;;24.60;74.60;;;25.79;47.36;98175.03;4982253;28;116400;-85
2022/06/22 10:07:59;;;;;;;4.70;4.20;;;25.30;75.40;;;25.78;47.45;98185.53;4989261;28;114800;-86
2022/06/22 10:10:43;;;;;;;4.47;3.50;;;25.30;75.50;;;25.83;47.80;98186.31;4968786;28;124008;-84
2022/06/22 10:13:33;;;;;;;4.70;4.07;;;25.30;75.80;;;25.81;48.06;98188.75;4985804;28;123217;-84
2022/06/22 10:16:10;;;;;;;4.60;4.17;;;25.30;76.00;;;25.79;48.06;98192.81;4991989;28;114351;-85
2022/06/22 10:19:14;;;;;;;4.70;4.20;;;25.30;76.30;;;25.76;48.47;98201.34;4973555;28;113972;-85
2022/06/22 10:21:52;;;;;;;3.90;3.60;;;25.10;76.40;;;25.79;48.62;98206.16;4982567;28;125438;-85
2022/06/22 10:24:38;;;;;;;5.53;4.40;;;25.30;77.60;;;25.79;48.69;98211.81;4982895;28;123378;-85
2022/06/22 10:27:47;;;;;;;4.37;3.97;;;25.30;77.20;;;25.74;48.52;98203.84;4974529;28;114730;-85
2022/06/22 10:30:39;;;;;;;4.57;3.70;;;25.30;77.50;;;25.68;48.93;98216.84;4986637;28;113553;-86
2022/06/22 10:34:12;;;;;;;4.47;4.07;;;25.20;77.90;;;25.61;49.42;98222.63;4970078;28;124718;-85
2022/06/22 10:37:19;;;;;;;4.67;4.27;;;25.20;78.10;;;25.63;49.01;98214.50;4975275;28;123875;-85
2022/06/22 10:40:03;;;;;;;5.07;4.27;;;25.20;78.40;;;25.66;49.50;98222.16;4987350;28;113731;-85
2022/06/22 10:45:57;;;;;;;4.90;4.40;;;25.20;79.00;;;25.71;49.75;98227.31;4972289;28;126342;-84
2022/06/22 10:49:27;;;;;;;6.93;4.77;;;25.20;79.50;;;25.69;50.34;98226.94;4967302;28;123784;-84
2022/06/22 10:52:38;;;;;;;5.10;4.40;;;23.40;78.40;;;25.64;50.41;98233.88;4951233;28;114300;-84
2022/06/22 10:55:20;;;;;;;5.00;4.50;;;25.20;80.50;;;25.65;50.74;98240.34;4975675;28;114160;-85
2022/06/22 10:57:53;;;;;;;5.33;4.60;;;25.10;81.10;;;25.62;51.14;98252.53;4976137;28;124478;-85
2022/06/22 11:00:35;;;;;;;5.23;4.47;;;25.10;81.40;;;25.60;51.61;98255.75;4976781;28;124318;-85
2022/06/22 11:03:42;;;;;;;5.43;4.93;;;25.10;81.80;;;25.54;51.20;98255.44;4970845;28;115189;-86
2022/06/22 11:06:48;;;;;;;4.57;4.17;;;25.10;81.90;;;25.50;51.11;98251.88;4979696;28;114826;-86
2022/06/22 11:09:26;;;;;;;4.43;3.70;;;25.00;81.90;;;25.47;51.28;98252.75;4988891;28;123081;-86
2022/06/22 11:12:20;;;;;;;3.73;3.43;;;25.00;81.80;;;25.42;50.90;98243.94;4984545;28;123862;-86
2022/06/22 11:15:07;;;;;;;3.83;3.53;;;24.90;81.50;;;25.36;51.34;98246.41;4984051;28;113779;-86
2022/06/22 11:17:52;;;;;;;3.63;3.30;;;24.90;81.50;;;25.36;50.92;98252.06;4970258;28;114157;-85
2022/06/22 11:20:50;;;;;;;5.00;3.90;;;24.90;81.50;;;25.34;51.12;98257.38;4972164;28;124323;-85
2022/06/22 11:23:50;;;;;;;4.87;3.37;;;24.90;81.50;;;25.33;50.94;98258.59;4987519;28;122742;-85
2022/06/22 11:33:17;;;;;;;4.30;3.90;;;24.80;82.10;;;25.36;51.45;98260.56;4982639;28;124735;-86
2022/06/22 11:36:44;;;;;;;5.00;4.00;;;24.80;82.30;;;25.35;51.39;98262.59;4974498;28;122982;-85
2022/06/22 11:39:40;;;;;;;4.00;3.57;;;24.80;82.50;;;25.35;50.97;98256.13;4968766;28;114481;-84
2022/06/22 11:42:24;;;;;;;4.03;3.63;;;24.80;82.60;;;25.33;51.38;98253.75;4969835;28;114567;-86